createdAt,value
2022-10-29T00:00:42.353Z,14.35
2022-10-29T00:03:09.705Z,19.73
2022-10-29T00:05:36.829Z,16.50
2022-10-29T00:08:03.946Z,17.60
2022-10-29T00:10:31.021Z,17.65
2022-10-29T00:13:00.926Z,14.90
2022-10-29T00:15:30.930Z,13.77
2022-10-29T00:17:58.354Z,16.83
2022-10-29T00:20:25.710Z,19.30
2022-10-29T00:22:55.806Z,20.48
2022-10-29T00:25:23.192Z,15.73
2022-10-29T00:27:50.244Z,13.65
2022-10-29T00:30:17.438Z,12.70
2022-10-29T00:32:44.487Z,18.02
2022-10-29T00:35:11.536Z,16.50
2022-10-29T00:37:40.759Z,17.25
2022-10-29T00:40:08.179Z,16.00
2022-10-29T00:42:35.229Z,15.55
2022-10-29T00:45:02.296Z,13.30
2022-10-29T00:47:32.269Z,15.30
2022-10-29T00:50:08.609Z,14.23
2022-10-29T00:52:37.594Z,14.50
2022-10-29T00:55:06.269Z,18.35
2022-10-29T00:57:47.031Z,18.98
2022-10-29T01:00:14.675Z,15.80
2022-10-29T01:02:42.899Z,16.17
2022-10-29T01:05:10.512Z,14.73
2022-10-29T01:07:37.992Z,19.08
2022-10-29T01:10:05.220Z,15.15
2022-10-29T01:12:49.025Z,15.13
2022-10-29T01:15:27.047Z,14.90
2022-10-29T01:18:01.609Z,15.20
2022-10-29T01:20:44.445Z,13.70
2022-10-29T01:23:14.340Z,14.23
2022-10-29T01:25:44.301Z,11.60
2022-10-29T01:31:10.781Z,12.43
2022-10-29T01:33:53.083Z,15.65
2022-10-29T01:36:26.256Z,17.10
2022-10-29T01:39:05.898Z,13.73
2022-10-29T01:41:39.898Z,12.32
2022-10-29T01:44:43.226Z,14.80
2022-10-29T01:47:16.256Z,13.13
2022-10-29T01:52:13.525Z,12.75
2022-10-29T01:54:42.204Z,13.77
2022-10-29T01:57:28.718Z,14.63
2022-10-29T01:59:57.689Z,15.25
2022-10-29T02:02:30.917Z,18.85
2022-10-29T02:04:57.947Z,14.57
2022-10-29T02:07:31.125Z,13.88
2022-10-29T02:10:08.450Z,14.18
2022-10-29T02:12:39.320Z,17.65
2022-10-29T02:15:21.324Z,18.50
2022-10-29T02:17:48.673Z,18.88
2022-10-29T02:20:16.120Z,22.60
2022-10-29T02:22:43.389Z,20.73
2022-10-29T02:25:11.229Z,14.90
2022-10-29T02:27:38.369Z,16.77
2022-10-29T02:30:05.816Z,17.90
2022-10-29T02:32:32.979Z,12.52
2022-10-29T02:35:01.090Z,15.95
2022-10-29T02:37:28.283Z,17.33
2022-10-29T02:39:55.392Z,28.17
2022-10-29T02:42:22.461Z,23.05
2022-10-29T02:44:49.537Z,28.13
2022-10-29T02:47:16.857Z,29.45
2022-10-29T02:49:43.944Z,35.53
2022-10-29T02:52:11.211Z,54.38
2022-10-29T02:54:39.219Z,53.80
2022-10-29T02:57:06.564Z,37.55
2022-10-29T02:59:33.693Z,42.90
2022-10-29T03:02:00.840Z,56.58
2022-10-29T03:04:28.218Z,53.75
2022-10-29T03:06:55.319Z,48.40
2022-10-29T03:09:22.484Z,59.45
2022-10-29T03:11:49.581Z,81.70
2022-10-29T03:14:16.640Z,56.33
2022-10-29T03:16:43.707Z,49.65
2022-10-29T03:19:10.761Z,78.20
2022-10-29T03:21:37.934Z,38.63
2022-10-29T03:24:05.520Z,40.15
2022-10-29T03:26:32.695Z,45.85
2022-10-29T03:28:59.767Z,37.72
2022-10-29T03:31:26.893Z,78.90
2022-10-29T03:33:54.014Z,55.00
2022-10-29T03:36:21.268Z,56.88
2022-10-29T03:38:48.375Z,48.75
2022-10-29T03:41:15.441Z,61.47
2022-10-29T03:43:42.527Z,32.20
2022-10-29T03:46:09.679Z,46.10
2022-10-29T03:48:36.809Z,45.80
2022-10-29T03:51:08.026Z,41.92
2022-10-29T03:53:36.182Z,54.95
2022-10-29T03:56:03.579Z,60.53
2022-10-29T03:58:30.620Z,25.58
2022-10-29T04:00:58.880Z,51.03
2022-10-29T04:03:26.037Z,42.83
2022-10-29T04:05:53.196Z,33.38
2022-10-29T04:08:20.703Z,25.33
2022-10-29T04:10:48.749Z,30.95
2022-10-29T04:13:15.880Z,24.73
2022-10-29T04:15:43.005Z,38.38
2022-10-29T04:18:10.463Z,20.83
2022-10-29T04:21:03.119Z,20.08
2022-10-29T04:28:58.847Z,18.23
2022-10-29T04:31:25.909Z,14.10
2022-10-29T04:33:55.705Z,18.02
2022-10-29T04:36:22.739Z,13.60
2022-10-29T04:38:50.772Z,15.45
2022-10-29T04:41:17.882Z,14.98
2022-10-29T04:43:44.916Z,16.05
2022-10-29T04:46:12.296Z,15.80
2022-10-29T04:48:39.435Z,16.05
2022-10-29T04:51:06.691Z,15.80
2022-10-29T04:53:33.733Z,14.15
2022-10-29T04:56:01.557Z,13.82
2022-10-29T04:58:28.733Z,16.17
2022-10-29T05:01:01.352Z,17.20
2022-10-29T05:03:28.498Z,14.85
2022-10-29T05:05:55.550Z,15.10
2022-10-29T05:08:22.597Z,14.52
2022-10-29T05:10:49.657Z,18.92
2022-10-29T05:13:16.865Z,18.67
2022-10-29T05:15:45.931Z,17.15
2022-10-29T05:18:15.076Z,14.13
2022-10-29T05:20:42.130Z,14.48
2022-10-29T05:23:10.685Z,15.75
2022-10-29T05:25:38.604Z,20.73
2022-10-29T05:28:07.171Z,15.23
2022-10-29T05:30:34.694Z,16.20
2022-10-29T05:33:01.779Z,17.00
2022-10-29T05:35:28.854Z,15.00
2022-10-29T05:37:56.758Z,15.50
2022-10-29T05:40:24.329Z,15.85
2022-10-29T05:42:51.572Z,12.95
2022-10-29T05:45:18.724Z,17.58
2022-10-29T05:47:45.785Z,17.17
2022-10-29T05:50:13.207Z,14.52
2022-10-29T05:52:40.579Z,16.27
2022-10-29T05:55:07.879Z,16.08
2022-10-29T05:57:34.926Z,12.38
2022-10-29T06:00:05.768Z,15.75
2022-10-29T06:02:39.167Z,16.10
2022-10-29T06:05:06.476Z,19.17
2022-10-29T06:07:33.559Z,13.93
2022-10-29T06:10:00.609Z,15.10
2022-10-29T06:12:31.138Z,17.00
2022-10-29T06:15:00.962Z,15.52
2022-10-29T06:17:28.122Z,17.45
2022-10-29T06:19:55.166Z,17.35
2022-10-29T06:22:22.199Z,14.98
2022-10-29T06:24:49.250Z,13.45
2022-10-29T06:27:16.293Z,16.50
2022-10-29T06:29:43.337Z,18.83
2022-10-29T06:32:10.354Z,16.63
2022-10-29T06:34:37.389Z,14.73
2022-10-29T06:37:04.437Z,14.40
2022-10-29T06:39:31.489Z,20.17
2022-10-29T06:41:58.569Z,14.75
2022-10-29T06:44:30.141Z,19.42
2022-10-29T06:46:57.245Z,18.13
2022-10-29T06:49:24.391Z,18.83
2022-10-29T06:51:52.264Z,15.13
2022-10-29T06:54:19.314Z,18.08
2022-10-29T06:56:46.352Z,17.48
2022-10-29T06:59:13.392Z,15.10
2022-10-29T07:01:40.528Z,19.85
2022-10-29T07:04:07.612Z,15.82
2022-10-29T07:06:34.891Z,16.60
2022-10-29T07:09:02.033Z,16.75
2022-10-29T07:11:29.145Z,18.20
2022-10-29T07:13:56.193Z,16.65
2022-10-29T07:16:23.280Z,20.20
2022-10-29T07:18:50.323Z,16.05
2022-10-29T07:21:17.434Z,16.63
2022-10-29T07:23:44.521Z,20.15
2022-10-29T07:26:11.557Z,18.52
2022-10-29T07:28:38.606Z,22.20
2022-10-29T07:31:07.610Z,19.30
2022-10-29T07:33:34.663Z,16.90
2022-10-29T07:36:01.727Z,22.63
2022-10-29T07:38:28.790Z,21.00
2022-10-29T07:40:55.882Z,19.60
2022-10-29T07:43:23.345Z,19.83
2022-10-29T07:45:51.018Z,20.80
2022-10-29T07:48:18.605Z,22.17
2022-10-29T07:50:45.749Z,23.48
2022-10-29T07:53:12.894Z,22.77
2022-10-29T07:55:39.937Z,21.73
2022-10-29T07:58:08.725Z,26.73
2022-10-29T08:00:36.892Z,25.05
2022-10-29T08:03:04.286Z,23.80
2022-10-29T08:05:31.959Z,24.98
2022-10-29T08:07:59.922Z,26.65
2022-10-29T08:10:27.706Z,23.90
2022-10-29T08:12:56.445Z,23.65
2022-10-29T08:15:24.778Z,25.88
2022-10-29T08:17:52.278Z,23.73
2022-10-29T08:20:19.475Z,25.75
2022-10-29T08:22:46.707Z,24.50
2022-10-29T08:25:13.989Z,25.13
2022-10-29T08:27:41.101Z,25.85
2022-10-29T08:30:09.277Z,23.20
2022-10-29T08:32:36.487Z,22.13
2022-10-29T08:35:03.520Z,23.20
2022-10-29T08:37:30.708Z,23.08
2022-10-29T08:39:57.750Z,27.70
2022-10-29T08:42:34.141Z,25.80
2022-10-29T08:45:09.232Z,22.27
2022-10-29T08:48:14.517Z,27.23
2022-10-29T08:50:44.098Z,27.42
2022-10-29T08:53:41.943Z,32.15
2022-10-29T08:56:19.011Z,29.88
2022-10-29T08:58:51.112Z,26.45
2022-10-29T09:01:20.444Z,28.65
2022-10-29T09:03:47.550Z,31.30
2022-10-29T09:06:15.903Z,23.98
2022-10-29T09:08:54.550Z,25.73
2022-10-29T09:11:21.582Z,28.02
2022-10-29T09:14:16.879Z,30.25
2022-10-29T09:17:15.587Z,23.10
2022-10-29T09:20:25.550Z,23.35
2022-10-29T09:23:07.716Z,22.30
2022-10-29T09:25:41.872Z,24.08
2022-10-29T09:28:11.669Z,26.02
2022-10-29T09:30:48.362Z,23.95
2022-10-29T09:33:17.438Z,26.45
2022-10-29T09:35:47.000Z,26.55
2022-10-29T09:38:22.117Z,26.80
2022-10-29T09:40:49.152Z,26.02
2022-10-29T09:43:20.258Z,25.88
2022-10-29T09:45:50.036Z,26.10
2022-10-29T09:48:27.760Z,25.58
2022-10-29T09:51:08.952Z,54.47
2022-10-29T09:53:36.087Z,33.42
2022-10-29T09:56:07.636Z,29.65
2022-10-29T09:58:39.308Z,23.73
2022-10-29T10:01:06.446Z,22.85
2022-10-29T10:03:42.722Z,24.35
2022-10-29T10:06:11.850Z,26.55
2022-10-29T10:09:01.874Z,21.52
2022-10-29T10:11:38.168Z,23.13
2022-10-29T10:14:31.171Z,22.17
2022-10-29T10:17:01.641Z,21.55
2022-10-29T10:19:31.106Z,23.98
2022-10-29T10:21:59.364Z,20.63
2022-10-29T10:24:33.370Z,22.15
2022-10-29T10:27:01.313Z,24.08
2022-10-29T10:29:28.742Z,22.33
2022-10-29T10:31:55.758Z,24.30
2022-10-29T10:34:26.665Z,24.25
2022-10-29T10:37:09.973Z,23.05
2022-10-29T10:39:38.581Z,23.50
2022-10-29T10:42:14.531Z,23.73
2022-10-29T10:44:54.316Z,23.02
2022-10-29T10:47:24.193Z,22.85
2022-10-29T10:49:51.272Z,21.42
2022-10-29T10:52:26.182Z,21.95
2022-10-29T10:55:00.155Z,23.20
2022-10-29T10:57:32.533Z,22.55
2022-10-29T11:00:03.302Z,21.92
2022-10-29T11:02:52.047Z,20.60
2022-10-29T11:05:29.146Z,18.67
2022-10-29T11:08:11.323Z,17.85
2022-10-29T11:10:44.582Z,21.23
2022-10-29T11:13:16.133Z,22.92
2022-10-29T11:16:17.761Z,21.60
2022-10-29T11:19:23.054Z,18.63
2022-10-29T11:22:18.353Z,19.30
2022-10-29T11:24:45.391Z,20.23
2022-10-29T11:27:43.169Z,23.95
2022-10-29T11:30:15.723Z,19.98
2022-10-29T11:36:01.789Z,17.92
2022-10-29T11:38:45.175Z,18.92
2022-10-29T11:41:12.207Z,23.38
2022-10-29T11:43:39.278Z,15.57
2022-10-29T11:46:39.085Z,14.77
2022-10-29T11:49:20.697Z,15.98
2022-10-29T11:52:05.932Z,20.90
2022-10-29T11:54:51.575Z,16.02
2022-10-29T11:57:23.681Z,13.80
2022-10-29T12:00:09.322Z,16.58
2022-10-29T12:02:42.244Z,15.23
2022-10-29T12:05:30.064Z,14.55
2022-10-29T12:08:00.165Z,17.35
2022-10-29T12:10:30.111Z,18.83
2022-10-29T12:13:05.390Z,14.40
2022-10-29T12:15:35.712Z,15.60
2022-10-29T12:18:27.631Z,15.57
2022-10-29T12:21:06.732Z,16.23
2022-10-29T12:23:52.033Z,15.32
2022-10-29T12:29:11.566Z,16.10
2022-10-29T12:31:50.863Z,18.02
2022-10-29T12:34:36.077Z,22.15
2022-10-29T12:37:09.728Z,17.90
2022-10-29T12:39:42.160Z,21.33
2022-10-29T12:42:20.213Z,19.20
2022-10-29T12:45:00.402Z,18.48
2022-10-29T12:47:40.955Z,15.32
2022-10-29T12:50:40.049Z,16.50
2022-10-29T12:53:33.938Z,17.35
2022-10-29T12:56:03.558Z,17.05
2022-10-29T12:58:50.545Z,15.40
2022-10-29T13:01:38.181Z,18.65
2022-10-29T13:04:29.708Z,17.10
2022-10-29T13:06:57.856Z,16.88
2022-10-29T13:09:24.944Z,14.70
2022-10-29T13:11:51.974Z,21.08
2022-10-29T13:14:30.658Z,19.75
2022-10-29T13:16:58.789Z,18.98
2022-10-29T13:19:46.948Z,18.20
2022-10-29T13:22:16.323Z,19.40
2022-10-29T13:24:43.449Z,16.45
2022-10-29T13:27:15.902Z,21.92
2022-10-29T13:29:47.944Z,18.17
2022-10-29T13:32:30.731Z,17.05
2022-10-29T13:35:03.454Z,20.50
2022-10-29T13:40:33.194Z,19.80
2022-10-29T13:43:18.718Z,18.33
2022-10-29T13:46:13.432Z,15.40
2022-10-29T13:48:41.446Z,22.42
2022-10-29T13:51:14.240Z,18.85
2022-10-29T13:53:54.090Z,18.40
2022-10-29T13:56:30.399Z,16.35
2022-10-29T13:59:00.226Z,17.42
2022-10-29T14:01:32.116Z,19.15
2022-10-29T14:04:04.054Z,16.02
2022-10-29T14:06:37.752Z,16.95
2022-10-29T14:09:12.339Z,18.15
2022-10-29T14:11:42.968Z,19.88
2022-10-29T14:14:28.494Z,17.75
2022-10-29T14:17:11.507Z,16.70
2022-10-29T14:19:38.658Z,21.42
2022-10-29T14:22:16.406Z,20.55
2022-10-29T14:24:43.528Z,22.52
2022-10-29T14:27:14.071Z,19.75
2022-10-29T14:29:41.302Z,18.48
2022-10-29T14:32:15.439Z,20.25
2022-10-29T14:34:45.101Z,21.15
2022-10-29T14:37:15.797Z,22.67
2022-10-29T14:39:57.871Z,22.25
2022-10-29T14:42:39.405Z,20.75
2022-10-29T14:45:19.226Z,21.92
2022-10-29T14:47:53.166Z,19.90
2022-10-29T14:50:24.726Z,24.42
2022-10-29T14:52:58.087Z,22.40
2022-10-29T14:55:28.116Z,19.40
2022-10-29T14:58:05.638Z,20.52
2022-10-29T15:00:36.773Z,22.95
2022-10-29T15:03:04.740Z,19.83
2022-10-29T15:05:36.117Z,29.15
2022-10-29T15:08:08.850Z,24.38
2022-10-29T15:13:34.666Z,23.23
2022-10-29T15:16:09.118Z,18.70
2022-10-29T15:18:37.613Z,23.33
2022-10-29T15:21:05.151Z,21.45
2022-10-29T15:23:33.977Z,23.95
2022-10-29T15:26:04.595Z,18.83
2022-10-29T15:28:37.664Z,26.15
2022-10-29T15:31:05.203Z,22.95
2022-10-29T15:33:32.750Z,23.52
2022-10-29T15:36:02.608Z,22.55
2022-10-29T15:38:35.052Z,18.08
2022-10-29T15:41:13.947Z,18.70
2022-10-29T15:43:52.027Z,19.83
2022-10-29T15:46:23.383Z,18.92
2022-10-29T15:48:50.538Z,19.15
2022-10-29T15:51:17.665Z,20.73
2022-10-29T15:53:44.712Z,20.90
2022-10-29T15:56:13.237Z,20.67
2022-10-29T15:58:40.940Z,17.52
2022-10-29T16:01:08.603Z,21.05
2022-10-29T16:03:39.308Z,19.52
2022-10-29T16:06:08.333Z,19.17
2022-10-29T16:08:55.324Z,20.60
2022-10-29T16:11:22.550Z,20.30
2022-10-29T16:13:54.470Z,22.33
2022-10-29T16:16:24.183Z,19.10
2022-10-29T16:18:52.597Z,21.63
2022-10-29T16:21:22.791Z,19.77
2022-10-29T16:23:50.492Z,20.23
2022-10-29T16:26:21.002Z,22.85
2022-10-29T16:28:48.107Z,23.50
2022-10-29T16:31:28.138Z,19.70
2022-10-29T16:33:58.931Z,21.02
2022-10-29T16:36:26.168Z,21.90
2022-10-29T16:38:53.325Z,21.83
2022-10-29T16:41:20.667Z,24.45
2022-10-29T16:43:48.142Z,21.35
2022-10-29T16:46:15.351Z,22.95
2022-10-29T16:48:43.291Z,21.02
2022-10-29T16:51:10.380Z,19.35
2022-10-29T16:53:37.445Z,21.80
2022-10-29T16:56:04.705Z,21.80
2022-10-29T16:58:31.902Z,24.83
2022-10-29T17:01:03.401Z,20.83
2022-10-29T17:03:30.919Z,22.70
2022-10-29T17:06:03.890Z,25.67
2022-10-29T17:08:32.435Z,24.17
2022-10-29T17:11:00.786Z,20.20
2022-10-29T17:13:27.868Z,21.20
2022-10-29T17:15:54.968Z,21.13
2022-10-29T17:18:24.102Z,24.63
2022-10-29T17:20:58.106Z,20.13
2022-10-29T17:23:25.242Z,23.52
2022-10-29T17:25:56.477Z,21.77
2022-10-29T17:28:24.405Z,20.63
2022-10-29T17:30:51.623Z,18.75
2022-10-29T17:33:19.291Z,22.75
2022-10-29T17:35:46.489Z,21.95
2022-10-29T17:38:13.611Z,18.98
2022-10-29T17:40:40.669Z,21.45
2022-10-29T17:43:07.704Z,20.30
2022-10-29T17:45:35.221Z,23.30
2022-10-29T17:48:02.280Z,22.17
2022-10-29T17:50:29.427Z,19.42
2022-10-29T17:52:57.787Z,23.63
2022-10-29T17:55:24.858Z,19.05
2022-10-29T17:57:51.913Z,18.35
2022-10-29T18:00:19.457Z,19.63
2022-10-29T18:02:49.953Z,19.23
2022-10-29T18:05:17.317Z,17.83
2022-10-29T18:07:44.400Z,21.70
2022-10-29T18:10:11.566Z,18.30
2022-10-29T18:12:38.694Z,19.90
2022-10-29T18:15:05.758Z,21.45
2022-10-29T18:17:32.990Z,23.30
2022-10-29T18:20:00.049Z,17.98
2022-10-29T18:22:27.094Z,19.17
2022-10-29T18:24:54.138Z,20.65
2022-10-29T18:27:21.221Z,25.90
2022-10-29T18:29:48.258Z,24.77
2022-10-29T18:32:15.421Z,19.92
2022-10-29T18:34:42.562Z,20.10
2022-10-29T18:37:09.938Z,19.45
2022-10-29T18:39:37.021Z,21.63
2022-10-29T18:42:04.316Z,23.98
2022-10-29T18:44:31.372Z,18.52
2022-10-29T18:46:58.420Z,23.13
2022-10-29T18:49:25.537Z,18.95
2022-10-29T18:51:53.596Z,22.55
2022-10-29T18:54:20.755Z,23.88
2022-10-29T18:56:47.865Z,20.10
2022-10-29T18:59:15.002Z,18.73
2022-10-29T19:01:42.219Z,20.55
2022-10-29T19:04:13.115Z,18.17
2022-10-29T19:06:40.241Z,17.63
2022-10-29T19:09:08.613Z,18.85
2022-10-29T19:11:35.728Z,22.98
2022-10-29T19:14:03.737Z,21.17
2022-10-29T19:16:31.585Z,17.15
2022-10-29T19:18:59.737Z,21.50
2022-10-29T19:21:26.908Z,18.23
2022-10-29T19:23:57.318Z,23.52
2022-10-29T19:26:25.297Z,19.17
2022-10-29T19:28:52.354Z,20.77
2022-10-29T19:31:22.483Z,24.17
2022-10-29T19:33:50.485Z,24.48
2022-10-29T19:36:18.132Z,23.17
2022-10-29T19:38:45.290Z,21.60
2022-10-29T19:41:12.542Z,20.52
2022-10-29T19:43:40.161Z,21.63
2022-10-29T19:46:08.614Z,24.27
2022-10-29T19:48:36.284Z,21.50
2022-10-29T19:51:03.332Z,21.48
2022-10-29T19:53:30.763Z,23.15
2022-10-29T19:55:58.085Z,22.80
2022-10-29T19:58:26.765Z,20.25
2022-10-29T20:00:54.157Z,23.33
2022-10-29T20:03:21.502Z,19.88
2022-10-29T20:05:49.922Z,20.17
2022-10-29T20:08:16.974Z,23.75
2022-10-29T20:10:44.155Z,27.92
2022-10-29T20:13:11.209Z,20.00
2022-10-29T20:15:41.347Z,20.58
2022-10-29T20:18:08.400Z,18.92
2022-10-29T20:20:35.546Z,22.55
2022-10-29T20:23:02.705Z,24.88
2022-10-29T20:25:29.877Z,19.80
2022-10-29T20:27:58.024Z,20.85
2022-10-29T20:30:24.818Z,21.45
2022-10-29T20:32:51.903Z,23.17
2022-10-29T20:35:18.932Z,22.25
2022-10-29T20:37:46.013Z,23.35
2022-10-29T20:40:13.208Z,21.95
2022-10-29T20:42:40.470Z,21.58
2022-10-29T20:45:08.035Z,22.83
2022-10-29T20:47:35.091Z,21.35
2022-10-29T20:50:02.326Z,22.73
2022-10-29T20:52:30.339Z,23.25
2022-10-29T20:54:57.382Z,21.77
2022-10-29T20:57:24.448Z,21.58
2022-10-29T20:59:51.559Z,23.70
2022-10-29T21:02:18.724Z,20.45
2022-10-29T21:04:45.925Z,20.65
2022-10-29T21:07:13.041Z,18.42
2022-10-29T21:09:40.122Z,18.98
2022-10-29T21:12:07.377Z,19.38
2022-10-29T21:14:34.407Z,20.00
2022-10-29T21:17:01.456Z,16.65
2022-10-29T21:19:28.670Z,18.75
2022-10-29T21:21:55.887Z,19.15
2022-10-29T21:24:23.017Z,20.08
2022-10-29T21:26:50.073Z,16.85
2022-10-29T21:29:17.183Z,19.45
2022-10-29T21:31:44.229Z,17.52
2022-10-29T21:34:11.281Z,23.88
2022-10-29T21:36:38.308Z,18.88
2022-10-29T21:39:05.349Z,20.42
2022-10-29T21:41:32.739Z,19.92
2022-10-29T21:44:00.211Z,21.80
2022-10-29T21:46:27.654Z,18.98
2022-10-29T21:48:56.318Z,15.70
2022-10-29T21:51:23.405Z,17.85
2022-10-29T21:53:50.087Z,20.23
2022-10-29T21:56:16.787Z,19.88
2022-10-29T21:58:43.944Z,22.08
2022-10-29T22:01:15.704Z,15.40
2022-10-29T22:03:44.532Z,17.90
2022-10-29T22:06:18.962Z,17.65
2022-10-29T22:08:46.400Z,18.55
2022-10-29T22:11:14.041Z,17.80
2022-10-29T22:13:41.262Z,22.80
2022-10-29T22:16:09.253Z,17.45
2022-10-29T22:18:37.049Z,23.73
2022-10-29T22:21:04.116Z,20.25
2022-10-29T22:23:31.165Z,17.02
2022-10-29T22:25:58.212Z,21.38
2022-10-29T22:28:25.298Z,18.60
2022-10-29T22:31:02.889Z,20.40
2022-10-29T22:33:30.225Z,19.15
2022-10-29T22:35:57.342Z,17.52
2022-10-29T22:38:24.382Z,15.55
2022-10-29T22:40:51.425Z,18.58
2022-10-29T22:43:18.508Z,17.30
2022-10-29T22:45:46.194Z,17.02
2022-10-29T22:48:13.339Z,18.50
2022-10-29T22:50:40.427Z,15.65
2022-10-29T22:53:07.491Z,20.25
2022-10-29T22:55:34.580Z,16.42
2022-10-29T22:58:01.650Z,15.10
2022-10-29T23:00:28.712Z,17.70
2022-10-29T23:02:56.119Z,15.63
2022-10-29T23:05:23.498Z,16.90
2022-10-29T23:07:50.545Z,16.90
2022-10-29T23:10:17.609Z,16.60
2022-10-29T23:12:44.649Z,20.30
2022-10-29T23:15:11.725Z,16.52
2022-10-29T23:17:38.814Z,15.65
2022-10-29T23:20:06.034Z,23.83
2022-10-29T23:22:33.076Z,17.20
2022-10-29T23:25:00.129Z,16.58
2022-10-29T23:27:27.215Z,16.40
2022-10-29T23:29:54.248Z,15.88
2022-10-29T23:32:21.331Z,15.73
2022-10-29T23:34:48.469Z,15.93
2022-10-29T23:37:15.523Z,17.45
2022-10-29T23:39:42.587Z,17.20
2022-10-29T23:42:09.631Z,16.92
2022-10-29T23:44:36.673Z,14.50
2022-10-29T23:47:03.734Z,19.50
2022-10-29T23:49:30.849Z,15.63
2022-10-29T23:51:57.934Z,18.75
2022-10-29T23:54:24.977Z,17.50
2022-10-29T23:56:52.020Z,17.52
2022-10-29T23:59:19.050Z,17.52
